Accueil
METAR-TAF:

METAR-TAF

Aéroports :

Wittering, Angleterre

latitude: 52-37N, longitude: 000-28W, altitude: 84 m

Observation

Le bulletin a été fait il y a 38 minutes, à 12:50 UTC
Vent 24 kt de ouest
Température 12°C
Humidité 62%
Pression 1010 hPa
Visibilité 10 km ou plus

METAR: EGXT 221250Z AUTO 27024KT 9999 BKN035/// 12/05 Q1010

Heure: 14:28 (13:28 UTC)

Prévision

Le bulletin a été fait il y a 26 heures et 45 minutes, à 10:43 UTC
Prévision valable du 21 à 12 UTC au 21 à 15 UTC
Vent 20 kt de sud/sud-ouest avec des rafales jusqu'à 30 kt
Visibilité 10 km ou plus
Quelques nuages à une hauteur de 3000 ft
Probabilité 30% :
Temporairement
du 21 à 12 UTC au 21 à 15 UTC
Vent 25 kt de sud/sud-ouest avec des rafales jusqu'à 40 kt
Visibilité: 7000 m
averses de pluie

TAF: EGXT 211043Z 2112/2115 20020G30KT 9999 FEW030 PROB30 TEMPO 2112/2115 20025G40KT 7000 SHRA

Observations et prévisions météorologiques de plus de 4000 aéroports (messages METAR et TAF).

Les stations disponibles sont représentées par des disques jaunes et rouges sur la carte.

Passer la souris dessus pour voir le nom de la station.

Cliquer dessus pour voir les observations et prévisions météorologiques.

Pour changer de carte: cliquez sur les boutons verts avec une croix noire pour zoomer, sur le bouton vert avec un tiret pour effectuer un zoom arrière, ou sur les flèches vertes pour les cartes adjacentes.


METAR-TAF: